Grants Ranch, Colorado
Current Conditions -  °F | °C
As of 4:53 PM on Sunday 21 Dec 2014 (Local Time) from KAPA Reporting Station
Broken Clouds Broken Clouds  
Wind Chill: 35°   Ceiling: 12000
Heat Index: 40°   Visibility: 10mi
Dew Point: 26°   Wind: 7mph
Humidity: 58%   Direction: 180°S
Pressure: 29.58"   Gusts: NA
Location:  39.5977°N, 105.071°W
Report Text: KAPA 212353Z 18006KT 10SM FEW050 SCT080 BKN120 BKN200 04/M03 A2958 RMK AO2 SLP023 SHSN OMTNS DSNT SW-NW T00441033 10094 20044 53002
Loading
Personal Weather Stations






























Interactive Weather Map New forecast layout! Learn more

10-Day Weather Forecast

Advertisements
Track Severe Weather on mobile